createdAt,value
2022-07-25T00:00:55.406Z,1006.45
2022-07-25T00:01:55.484Z,1006.44
2022-07-25T00:02:55.465Z,1006.42
2022-07-25T00:03:56.625Z,1006.43
2022-07-25T00:04:55.592Z,1006.45
2022-07-25T00:05:55.584Z,1006.39
2022-07-25T00:06:55.586Z,1006.43
2022-07-25T00:07:55.615Z,1006.41
2022-07-25T00:08:55.649Z,1006.42
2022-07-25T00:09:55.676Z,1006.42
2022-07-25T00:10:55.706Z,1006.40
2022-07-25T00:11:55.734Z,1006.38
2022-07-25T00:12:55.762Z,1006.39
2022-07-25T00:13:55.796Z,1006.39
2022-07-25T00:14:55.823Z,1006.38
2022-07-25T00:15:55.935Z,1006.35
2022-07-25T00:16:55.885Z,1006.35
2022-07-25T00:17:55.915Z,1006.35
2022-07-25T00:18:55.945Z,1006.37
2022-07-25T00:19:55.971Z,1006.32
2022-07-25T00:20:56.004Z,1006.32
2022-07-25T00:21:56.035Z,1006.35
2022-07-25T00:22:56.077Z,1006.34
2022-07-25T00:23:56.110Z,1006.33
2022-07-25T00:24:56.123Z,1006.34
2022-07-25T00:25:56.154Z,1006.35
2022-07-25T00:26:56.187Z,1006.30
2022-07-25T00:27:56.218Z,1006.28
2022-07-25T00:28:56.246Z,1006.28
2022-07-25T00:29:56.276Z,1006.26
2022-07-25T00:30:56.385Z,1006.26
2022-07-25T00:31:56.335Z,1006.25
2022-07-25T00:32:56.365Z,1006.25
2022-07-25T00:33:56.393Z,1006.21
2022-07-25T00:34:56.423Z,1006.18
2022-07-25T00:35:56.459Z,1006.20
2022-07-25T00:36:56.483Z,1006.16
2022-07-25T00:37:56.518Z,1006.19
2022-07-25T00:38:56.542Z,1006.20
2022-07-25T00:39:56.571Z,1006.16
2022-07-25T00:40:56.604Z,1006.16
2022-07-25T00:41:56.639Z,1006.17
2022-07-25T00:42:56.674Z,1006.11
2022-07-25T00:43:56.690Z,1006.13
2022-07-25T00:44:56.726Z,1006.09
2022-07-25T00:45:56.794Z,1006.10
2022-07-25T00:46:56.924Z,1006.06
2022-07-25T00:47:56.810Z,1006.01
2022-07-25T00:48:56.896Z,1006.00
2022-07-25T00:49:56.869Z,1005.99
2022-07-25T00:50:56.901Z,1005.99
2022-07-25T00:51:56.930Z,1005.93
2022-07-25T00:52:56.960Z,1005.90
2022-07-25T00:53:57.011Z,1005.90
2022-07-25T00:54:57.041Z,1005.90
2022-07-25T00:55:57.050Z,1005.88
2022-07-25T00:56:57.084Z,1005.87
2022-07-25T00:57:57.110Z,1005.82
2022-07-25T00:58:57.141Z,1005.81
2022-07-25T00:59:57.166Z,1005.86
2022-07-25T01:00:57.197Z,1005.82
2022-07-25T01:01:57.305Z,1005.84
2022-07-25T01:02:57.477Z,1005.83
2022-07-25T01:03:57.285Z,1005.84
2022-07-25T01:04:57.310Z,1005.83
2022-07-25T01:05:57.348Z,1005.85
2022-07-25T01:06:57.375Z,1005.81
2022-07-25T01:07:57.406Z,1005.83
2022-07-25T01:08:57.447Z,1005.78
2022-07-25T01:09:57.463Z,1005.76
2022-07-25T01:10:57.489Z,1005.77
2022-07-25T01:11:57.520Z,1005.75
2022-07-25T01:12:57.548Z,1005.78
2022-07-25T01:13:57.580Z,1005.74
2022-07-25T01:14:57.608Z,1005.74
2022-07-25T01:15:57.668Z,1005.77
2022-07-25T01:16:57.673Z,1005.76
2022-07-25T01:17:57.699Z,1005.78
2022-07-25T01:18:57.727Z,1005.72
2022-07-25T01:19:57.778Z,1005.78
2022-07-25T01:20:57.792Z,1005.75
2022-07-25T01:21:57.817Z,1005.74
2022-07-25T01:22:57.844Z,1005.75
2022-07-25T01:23:57.873Z,1005.76
2022-07-25T01:24:57.898Z,1005.72
2022-07-25T01:25:57.936Z,1005.71
2022-07-25T01:26:57.963Z,1005.74
2022-07-25T01:27:57.988Z,1005.66
2022-07-25T01:28:58.030Z,1005.66
2022-07-25T01:29:58.048Z,1005.64
2022-07-25T01:30:58.128Z,1005.64
2022-07-25T01:31:58.107Z,1005.64
2022-07-25T01:32:58.141Z,1005.62
2022-07-25T01:33:58.172Z,1005.59
2022-07-25T01:34:58.197Z,1005.61
2022-07-25T01:35:58.229Z,1005.56
2022-07-25T01:36:58.259Z,1005.60
2022-07-25T01:37:58.285Z,1005.60
2022-07-25T01:38:58.318Z,1005.57
2022-07-25T01:39:58.350Z,1005.61
2022-07-25T01:40:58.372Z,1005.61
2022-07-25T01:41:58.400Z,1005.56
2022-07-25T01:42:58.433Z,1005.56
2022-07-25T01:43:58.461Z,1005.57
2022-07-25T01:44:58.498Z,1005.55
2022-07-25T01:45:58.571Z,1005.55
2022-07-25T01:46:58.551Z,1005.52
2022-07-25T01:47:58.580Z,1005.50
2022-07-25T01:48:58.652Z,1005.48
2022-07-25T01:49:58.635Z,1005.50
2022-07-25T01:50:58.665Z,1005.49
2022-07-25T01:51:58.693Z,1005.48
2022-07-25T01:52:58.723Z,1005.47
2022-07-25T01:53:58.755Z,1005.45
2022-07-25T01:54:58.785Z,1005.48
2022-07-25T01:55:58.815Z,1005.49
2022-07-25T01:56:58.842Z,1005.46
2022-07-25T01:57:58.872Z,1005.49
2022-07-25T01:58:58.902Z,1005.45
2022-07-25T01:59:58.936Z,1005.42
2022-07-25T02:00:58.975Z,1005.41
2022-07-25T02:01:59.060Z,1005.44
2022-07-25T02:02:59.015Z,1005.40
2022-07-25T02:03:59.047Z,1005.40
2022-07-25T02:04:59.120Z,1005.36
2022-07-25T02:05:59.113Z,1005.36
2022-07-25T02:06:59.128Z,1005.33
2022-07-25T02:07:59.159Z,1005.33
2022-07-25T02:08:59.188Z,1005.32
2022-07-25T02:09:59.224Z,1005.30
2022-07-25T02:10:59.248Z,1005.26
2022-07-25T02:11:59.308Z,1005.27
2022-07-25T02:12:59.307Z,1005.24
2022-07-25T02:13:59.334Z,1005.25
2022-07-25T02:14:59.372Z,1005.22
2022-07-25T02:15:59.403Z,1005.20
2022-07-25T02:16:59.471Z,1005.18
2022-07-25T02:17:59.451Z,1005.17
2022-07-25T02:18:59.478Z,1005.16
2022-07-25T02:19:59.512Z,1005.15
2022-07-25T02:20:59.537Z,1005.18
2022-07-25T02:21:59.567Z,1005.14
2022-07-25T02:22:59.597Z,1005.14
2022-07-25T02:23:59.629Z,1005.15
2022-07-25T02:24:59.672Z,1005.16
2022-07-25T02:25:59.686Z,1005.11
2022-07-25T02:26:59.718Z,1005.11
2022-07-25T02:27:59.747Z,1005.13
2022-07-25T02:28:59.775Z,1005.12
2022-07-25T02:29:59.803Z,1005.11
2022-07-25T02:30:59.906Z,1005.09
2022-07-25T02:31:59.873Z,1005.05
2022-07-25T02:32:59.905Z,1005.04
2022-07-25T02:33:59.920Z,1005.06
2022-07-25T02:34:59.946Z,1005.03
2022-07-25T02:35:59.977Z,1005.03
2022-07-25T02:37:00.002Z,1005.05
2022-07-25T02:38:00.038Z,1005.04
2022-07-25T02:39:00.068Z,1005.01
2022-07-25T02:40:00.091Z,1005.02
2022-07-25T02:41:00.127Z,1005.00
2022-07-25T02:42:00.150Z,1004.98
2022-07-25T02:43:07.343Z,1004.98
2022-07-25T02:46:08.719Z,1004.95
2022-07-25T02:47:08.210Z,1004.97
2022-07-25T02:49:12.758Z,1005.00
2022-07-25T02:50:14.560Z,1005.00
2022-07-25T02:52:16.305Z,1005.01
2022-07-25T02:53:24.699Z,1005.00
2022-07-25T02:55:20.824Z,1005.01
2022-07-25T02:56:21.183Z,1005.02
2022-07-25T02:58:24.395Z,1004.94
2022-07-25T02:59:24.419Z,1004.94
2022-07-25T03:01:29.001Z,1004.89
2022-07-25T03:02:28.485Z,1004.90
2022-07-25T03:04:33.609Z,1004.83
2022-07-25T03:05:33.542Z,1004.83
2022-07-25T03:07:38.052Z,1004.82
2022-07-25T03:08:37.620Z,1004.77
2022-07-25T03:10:42.221Z,1004.79
2022-07-25T03:11:41.857Z,1004.76
2022-07-25T03:13:46.855Z,1004.73
2022-07-25T03:14:45.909Z,1004.74
2022-07-25T03:16:38.949Z,1004.70
2022-07-25T03:17:38.876Z,1004.72
2022-07-25T03:19:43.402Z,1004.68
2022-07-25T03:20:42.945Z,1004.66
2022-07-25T03:22:36.078Z,1004.68
2022-07-25T03:23:36.087Z,1004.69
2022-07-25T03:25:40.592Z,1004.67
2022-07-25T03:26:40.141Z,1004.68
2022-07-25T03:28:44.167Z,1004.64
2022-07-25T03:29:44.193Z,1004.66
2022-07-25T03:31:48.722Z,1004.64
2022-07-25T03:32:48.234Z,1004.64
2022-07-25T03:34:52.304Z,1004.62
2022-07-25T03:35:52.282Z,1004.61
2022-07-25T03:37:56.792Z,1004.61
2022-07-25T03:38:56.323Z,1004.55
2022-07-25T03:41:00.863Z,1004.56
2022-07-25T03:42:00.377Z,1004.52
2022-07-25T03:44:05.161Z,1004.50
2022-07-25T03:45:04.454Z,1004.50
2022-07-25T03:46:57.372Z,1004.44
2022-07-25T03:47:57.393Z,1004.47
2022-07-25T03:50:01.893Z,1004.39
2022-07-25T03:51:06.564Z,1004.42
2022-07-25T03:52:01.474Z,1004.37
2022-07-25T03:53:01.497Z,1004.38
2022-07-25T03:54:01.528Z,1004.40
2022-07-25T03:55:01.556Z,1004.36
2022-07-25T03:56:01.591Z,1004.36
2022-07-25T03:57:01.613Z,1004.34
2022-07-25T03:58:01.650Z,1004.33
2022-07-25T03:59:01.673Z,1004.33
2022-07-25T04:00:01.701Z,1004.27
2022-07-25T04:01:01.848Z,1004.31
2022-07-25T04:02:01.805Z,1004.31
2022-07-25T04:03:01.789Z,1004.31
2022-07-25T04:04:01.824Z,1004.32
2022-07-25T04:05:01.856Z,1004.31
2022-07-25T04:06:01.874Z,1004.27
2022-07-25T04:07:01.910Z,1004.25
2022-07-25T04:08:01.946Z,1004.28
2022-07-25T04:09:01.963Z,1004.23
2022-07-25T04:10:01.992Z,1004.23
2022-07-25T04:11:02.020Z,1004.24
2022-07-25T04:12:02.054Z,1004.26
2022-07-25T04:13:02.079Z,1004.22
2022-07-25T04:14:02.112Z,1004.23
2022-07-25T04:15:02.186Z,1004.24
2022-07-25T04:16:02.166Z,1004.21
2022-07-25T04:17:02.280Z,1004.26
2022-07-25T04:18:02.250Z,1004.29
2022-07-25T04:19:02.282Z,1004.23
2022-07-25T04:20:02.290Z,1004.21
2022-07-25T04:21:02.318Z,1004.19
2022-07-25T04:22:02.347Z,1004.14
2022-07-25T04:23:02.384Z,1004.16
2022-07-25T04:24:02.630Z,1004.10
2022-07-25T04:25:02.447Z,1004.11
2022-07-25T04:26:02.470Z,1004.11
2022-07-25T04:27:02.501Z,1004.14
2022-07-25T04:28:02.529Z,1004.12
2022-07-25T04:29:02.563Z,1004.13
2022-07-25T04:30:02.593Z,1004.12
2022-07-25T04:31:02.625Z,1004.11
2022-07-25T04:32:02.746Z,1004.07
2022-07-25T04:33:02.686Z,1004.09
2022-07-25T04:34:03.008Z,1004.07
2022-07-25T04:35:02.807Z,1004.07
2022-07-25T04:36:02.778Z,1004.06
2022-07-25T04:37:02.816Z,1004.03
2022-07-25T04:38:02.843Z,1004.05
2022-07-25T04:39:02.877Z,1003.99
2022-07-25T04:40:02.911Z,1004.00
2022-07-25T04:41:02.940Z,1004.01
2022-07-25T04:42:02.976Z,1003.97
2022-07-25T04:43:03.003Z,1003.95
2022-07-25T04:44:03.485Z,1003.97
2022-07-25T04:45:03.068Z,1003.92
2022-07-25T04:46:03.130Z,1003.93
2022-07-25T04:47:03.131Z,1003.95
2022-07-25T04:48:03.165Z,1003.97
2022-07-25T04:49:03.271Z,1003.93
2022-07-25T04:50:03.227Z,1003.91
2022-07-25T04:51:03.263Z,1003.92
2022-07-25T04:52:03.315Z,1003.92
2022-07-25T04:53:03.330Z,1003.95
2022-07-25T04:54:03.665Z,1003.92
2022-07-25T04:55:03.388Z,1003.92
2022-07-25T04:56:03.428Z,1003.93
2022-07-25T04:57:03.459Z,1003.90
2022-07-25T04:58:03.496Z,1003.91
2022-07-25T04:59:06.863Z,1003.90
2022-07-25T05:00:03.558Z,1003.89
2022-07-25T05:01:03.696Z,1003.89
2022-07-25T05:02:03.679Z,1003.86
2022-07-25T05:03:03.663Z,1003.85
2022-07-25T05:04:04.070Z,1003.85
2022-07-25T05:05:03.730Z,1003.82
2022-07-25T05:06:03.761Z,1003.86
2022-07-25T05:07:03.812Z,1003.84
2022-07-25T05:08:03.854Z,1003.84
2022-07-25T05:09:03.871Z,1003.80
2022-07-25T05:10:03.896Z,1003.81
2022-07-25T05:11:03.931Z,1003.78
2022-07-25T05:12:03.965Z,1003.80
2022-07-25T05:13:04.004Z,1003.80
2022-07-25T05:14:04.438Z,1003.80
2022-07-25T05:15:04.070Z,1003.84
2022-07-25T05:16:04.121Z,1003.79
2022-07-25T05:17:04.139Z,1003.79
2022-07-25T05:18:04.180Z,1003.72
2022-07-25T05:19:04.212Z,1003.74
2022-07-25T05:20:04.246Z,1003.76
2022-07-25T05:21:04.281Z,1003.76
2022-07-25T05:22:04.317Z,1003.76
2022-07-25T05:23:04.353Z,1003.77
2022-07-25T05:24:04.665Z,1003.76
2022-07-25T05:25:04.424Z,1003.76
2022-07-25T05:26:04.457Z,1003.77
2022-07-25T05:27:04.492Z,1003.77
2022-07-25T05:28:04.532Z,1003.74
2022-07-25T05:29:04.564Z,1003.78
2022-07-25T05:30:04.602Z,1003.77
2022-07-25T05:31:04.765Z,1003.72
2022-07-25T05:32:04.741Z,1003.70
2022-07-25T05:33:04.725Z,1003.66
2022-07-25T05:34:05.061Z,1003.65
2022-07-25T05:35:04.779Z,1003.67
2022-07-25T05:36:04.815Z,1003.67
2022-07-25T05:37:04.850Z,1003.65
2022-07-25T05:38:04.884Z,1003.61
2022-07-25T05:39:04.920Z,1003.63
2022-07-25T05:40:04.957Z,1003.64
2022-07-25T05:41:04.989Z,1003.62
2022-07-25T05:42:05.028Z,1003.60
2022-07-25T05:43:05.055Z,1003.57
2022-07-25T05:44:05.412Z,1003.57
2022-07-25T05:45:05.132Z,1003.56
2022-07-25T05:46:05.168Z,1003.55
2022-07-25T05:47:05.286Z,1003.52
2022-07-25T05:48:05.240Z,1003.55
2022-07-25T05:49:05.328Z,1003.53
2022-07-25T05:50:05.308Z,1003.50
2022-07-25T05:51:05.343Z,1003.48
2022-07-25T05:52:08.260Z,1003.54
2022-07-25T05:53:05.414Z,1003.51
2022-07-25T05:54:05.811Z,1003.47
2022-07-25T05:55:05.484Z,1003.43
2022-07-25T05:56:05.518Z,1003.44
2022-07-25T05:57:05.551Z,1003.45
2022-07-25T05:58:05.588Z,1003.40
2022-07-25T05:59:05.621Z,1003.42
2022-07-25T06:00:05.675Z,1003.45
2022-07-25T06:01:05.691Z,1003.43
2022-07-25T06:02:05.845Z,1003.44
2022-07-25T06:03:05.896Z,1003.43
2022-07-25T06:04:06.067Z,1003.48
2022-07-25T06:05:05.832Z,1003.42
2022-07-25T06:06:05.865Z,1003.43
2022-07-25T06:07:05.899Z,1003.44
2022-07-25T06:08:05.935Z,1003.43
2022-07-25T06:09:08.047Z,1003.44
2022-07-25T06:10:05.999Z,1003.43
2022-07-25T06:11:06.036Z,1003.48
2022-07-25T06:12:06.077Z,1003.46
2022-07-25T06:13:06.105Z,1003.48
2022-07-25T06:14:06.525Z,1003.45
2022-07-25T06:15:06.180Z,1003.45
2022-07-25T06:16:06.261Z,1003.43
2022-07-25T06:17:06.243Z,1003.41
2022-07-25T06:18:06.292Z,1003.35
2022-07-25T06:19:06.313Z,1003.36
2022-07-25T06:20:06.349Z,1003.35
2022-07-25T06:21:06.384Z,1003.33
2022-07-25T06:22:06.416Z,1003.33
2022-07-25T06:23:06.453Z,1003.34
2022-07-25T06:24:06.969Z,1003.33
2022-07-25T06:25:06.523Z,1003.30
2022-07-25T06:26:06.556Z,1003.30
2022-07-25T06:27:06.590Z,1003.36
2022-07-25T06:28:06.626Z,1003.34
2022-07-25T06:29:06.659Z,1003.39
2022-07-25T06:30:18.786Z,1003.33
2022-07-25T06:31:06.857Z,1003.37
2022-07-25T06:32:06.765Z,1003.36
2022-07-25T06:33:06.824Z,1003.37
2022-07-25T06:34:07.302Z,1003.41
2022-07-25T06:35:06.871Z,1003.40
2022-07-25T06:36:06.912Z,1003.38
2022-07-25T06:37:06.944Z,1003.40
2022-07-25T06:38:06.981Z,1003.35
2022-07-25T06:39:07.018Z,1003.34
2022-07-25T06:40:07.049Z,1003.32
2022-07-25T06:41:07.083Z,1003.31
2022-07-25T06:42:07.122Z,1003.31
2022-07-25T06:43:07.157Z,1003.30
2022-07-25T06:44:07.864Z,1003.28
2022-07-25T06:45:07.225Z,1003.29
2022-07-25T06:46:07.261Z,1003.29
2022-07-25T06:47:07.386Z,1003.30
2022-07-25T06:48:07.327Z,1003.32
2022-07-25T06:49:07.438Z,1003.30
2022-07-25T06:50:07.562Z,1003.25
2022-07-25T06:51:07.437Z,1003.30
2022-07-25T06:52:07.472Z,1003.27
2022-07-25T06:53:07.508Z,1003.29
2022-07-25T06:54:07.931Z,1003.27
2022-07-25T06:55:07.576Z,1003.20
2022-07-25T06:56:07.613Z,1003.19
2022-07-25T06:57:07.643Z,1003.21
2022-07-25T06:58:07.680Z,1003.20
2022-07-25T06:59:07.714Z,1003.20
2022-07-25T07:00:07.750Z,1003.14
2022-07-25T07:01:07.873Z,1003.14
2022-07-25T07:02:07.821Z,1003.17
2022-07-25T07:03:07.881Z,1003.13
2022-07-25T07:04:08.315Z,1003.10
2022-07-25T07:05:07.930Z,1003.09
2022-07-25T07:06:07.966Z,1003.06
2022-07-25T07:07:08.003Z,1003.01
2022-07-25T07:08:08.038Z,1003.01
2022-07-25T07:09:08.072Z,1003.00
2022-07-25T07:10:08.110Z,1003.01
2022-07-25T07:11:08.146Z,1003.02
2022-07-25T07:12:08.186Z,1003.00
2022-07-25T07:13:08.217Z,1003.00
2022-07-25T07:14:08.671Z,1003.01
2022-07-25T07:15:08.298Z,1003.00
2022-07-25T07:16:08.403Z,1002.98
2022-07-25T07:17:08.367Z,1002.98
2022-07-25T07:18:08.395Z,1002.94
2022-07-25T07:19:08.696Z,1002.94
2022-07-25T07:20:08.468Z,1002.92
2022-07-25T07:21:08.502Z,1002.94
2022-07-25T07:22:08.539Z,1002.97
2022-07-25T07:23:08.574Z,1002.91
2022-07-25T07:24:23.453Z,1002.92
2022-07-25T07:25:08.662Z,1002.91
2022-07-25T07:26:08.684Z,1002.91
2022-07-25T07:27:08.720Z,1002.90
2022-07-25T07:28:08.755Z,1002.84
2022-07-25T07:29:09.666Z,1002.88
2022-07-25T07:30:08.830Z,1002.86
2022-07-25T07:31:17.413Z,1002.83
2022-07-25T07:32:08.948Z,1002.85
2022-07-25T07:33:08.935Z,1002.87
2022-07-25T07:34:08.975Z,1002.83
2022-07-25T07:35:09.007Z,1002.83
2022-07-25T07:36:09.043Z,1002.79
2022-07-25T07:37:09.077Z,1002.78
2022-07-25T07:38:09.113Z,1002.76
2022-07-25T07:39:09.459Z,1002.70
2022-07-25T07:40:09.181Z,1002.72
2022-07-25T07:41:09.233Z,1002.70
2022-07-25T07:42:09.261Z,1002.70
2022-07-25T07:43:09.291Z,1002.68
2022-07-25T07:44:09.325Z,1002.67
2022-07-25T07:45:09.364Z,1002.71
2022-07-25T07:46:09.439Z,1002.67
2022-07-25T07:47:14.370Z,1002.67
2022-07-25T07:48:09.471Z,1002.68
2022-07-25T07:49:10.018Z,1002.70
2022-07-25T07:50:09.558Z,1002.73
2022-07-25T07:51:09.579Z,1002.76
2022-07-25T07:52:09.709Z,1002.68
2022-07-25T07:53:09.652Z,1002.70
2022-07-25T07:54:09.689Z,1002.67
2022-07-25T07:55:09.722Z,1002.73
2022-07-25T07:56:09.757Z,1002.71
2022-07-25T07:57:09.793Z,1002.73
2022-07-25T07:58:09.829Z,1002.67
2022-07-25T07:59:10.294Z,1002.71
2022-07-25T08:00:14.813Z,1002.72
2022-07-25T08:01:09.939Z,1002.72
2022-07-25T08:02:10.034Z,1002.74
2022-07-25T08:03:10.291Z,1002.72
2022-07-25T08:04:10.046Z,1002.71
2022-07-25T08:05:10.086Z,1002.67
2022-07-25T08:06:10.115Z,1002.65
2022-07-25T08:07:10.155Z,1002.59
2022-07-25T08:08:10.194Z,1002.68
2022-07-25T08:09:10.527Z,1002.62
2022-07-25T08:10:10.266Z,1002.63
2022-07-25T08:11:10.303Z,1002.68
2022-07-25T08:12:10.338Z,1002.67
2022-07-25T08:13:10.378Z,1002.69
2022-07-25T08:14:10.639Z,1002.66
2022-07-25T08:15:10.452Z,1002.57
2022-07-25T08:16:10.525Z,1002.54
2022-07-25T08:17:12.808Z,1002.49
2022-07-25T08:18:17.449Z,1002.46
2022-07-25T08:19:10.600Z,1002.45
2022-07-25T08:20:36.352Z,1002.43
2022-07-25T08:21:10.693Z,1002.38
2022-07-25T08:22:10.712Z,1002.43
2022-07-25T08:23:10.749Z,1002.44
2022-07-25T08:24:10.785Z,1002.45
2022-07-25T08:25:10.821Z,1002.42
2022-07-25T08:26:10.861Z,1002.42
2022-07-25T08:27:10.898Z,1002.38
2022-07-25T08:28:10.935Z,1002.33
2022-07-25T08:29:19.202Z,1002.32
2022-07-25T08:30:11.009Z,1002.32
2022-07-25T08:31:11.087Z,1002.32
2022-07-25T08:32:11.083Z,1002.31
2022-07-25T08:33:11.121Z,1002.29
2022-07-25T08:34:11.156Z,1002.32
2022-07-25T08:35:11.622Z,1002.33
2022-07-25T08:36:11.233Z,1002.31
2022-07-25T08:37:11.270Z,1002.33
2022-07-25T08:38:11.307Z,1002.34
2022-07-25T08:39:11.358Z,1002.36
2022-07-25T08:40:11.389Z,1002.34
2022-07-25T08:41:11.421Z,1002.38
2022-07-25T08:42:11.459Z,1002.36
2022-07-25T08:43:11.492Z,1002.34
2022-07-25T08:44:11.531Z,1002.34
2022-07-25T08:45:11.567Z,1002.35
2022-07-25T08:46:11.649Z,1002.37
2022-07-25T08:47:11.643Z,1002.35
2022-07-25T08:48:11.680Z,1002.40
2022-07-25T08:49:11.749Z,1002.40
2022-07-25T08:50:11.759Z,1002.45
2022-07-25T08:51:11.795Z,1002.39
2022-07-25T08:52:11.829Z,1002.40
2022-07-25T08:53:33.506Z,1002.39
2022-07-25T08:54:11.904Z,1002.43
2022-07-25T08:55:11.945Z,1002.41
2022-07-25T08:56:16.209Z,1002.45
2022-07-25T08:57:12.016Z,1002.38
2022-07-25T08:58:12.053Z,1002.46
2022-07-25T08:59:12.089Z,1002.40
2022-07-25T09:00:12.123Z,1002.40
2022-07-25T09:01:12.227Z,1002.35
2022-07-25T09:02:19.501Z,1002.33
2022-07-25T09:04:16.715Z,1002.32
2022-07-25T09:05:16.272Z,1002.27
2022-07-25T09:07:20.324Z,1002.35
2022-07-25T09:08:20.345Z,1002.36
2022-07-25T09:10:24.853Z,1002.38
2022-07-25T09:11:24.411Z,1002.36
2022-07-25T09:13:28.456Z,1002.32
2022-07-25T09:14:28.483Z,1002.36
2022-07-25T09:16:22.048Z,1002.43
2022-07-25T09:17:22.534Z,1002.43
2022-07-25T09:19:25.524Z,1002.43
2022-07-25T09:20:25.551Z,1002.43
2022-07-25T09:22:30.066Z,1002.44
2022-07-25T09:23:29.632Z,1002.43
2022-07-25T09:25:34.135Z,1002.45
2022-07-25T09:26:33.690Z,1002.44
2022-07-25T09:28:37.733Z,1002.44
2022-07-25T09:29:37.757Z,1002.43
2022-07-25T09:31:42.371Z,1002.41
2022-07-25T09:32:41.831Z,1002.43
2022-07-25T09:34:46.848Z,1002.41
2022-07-25T09:35:46.396Z,1002.42
2022-07-25T09:36:46.430Z,1002.39
2022-07-25T09:37:46.493Z,1002.42
2022-07-25T09:38:46.508Z,1002.38
2022-07-25T09:39:47.403Z,1002.38
2022-07-25T09:40:46.575Z,1002.40
2022-07-25T09:41:46.619Z,1002.40
2022-07-25T09:42:46.648Z,1002.41
2022-07-25T09:43:46.683Z,1002.39
2022-07-25T09:44:46.717Z,1002.41
2022-07-25T09:45:46.758Z,1002.31
2022-07-25T09:46:46.843Z,1002.28
2022-07-25T09:47:46.826Z,1002.29
2022-07-25T09:48:46.886Z,1002.20
2022-07-25T09:49:46.904Z,1002.18
2022-07-25T09:50:46.940Z,1002.15
2022-07-25T09:51:46.975Z,1002.11
2022-07-25T09:52:47.011Z,1002.10
2022-07-25T09:53:47.051Z,1002.14
2022-07-25T09:54:47.082Z,1002.09
2022-07-25T09:55:47.122Z,1002.13
2022-07-25T09:56:47.155Z,1002.12
2022-07-25T09:57:47.193Z,1002.12
2022-07-25T09:58:47.228Z,1002.16
2022-07-25T09:59:47.266Z,1002.11
2022-07-25T10:00:47.305Z,1002.13
2022-07-25T10:01:47.408Z,1002.15
2022-07-25T10:02:47.458Z,1002.17
2022-07-25T10:03:47.420Z,1002.18
2022-07-25T10:04:47.452Z,1002.18
2022-07-25T10:05:47.485Z,1002.24
2022-07-25T10:06:47.517Z,1002.29
2022-07-25T10:07:47.567Z,1002.33
2022-07-25T10:08:47.601Z,1002.37
2022-07-25T10:09:47.631Z,1002.40
2022-07-25T10:10:47.669Z,1002.43
2022-07-25T10:11:47.707Z,1002.43
2022-07-25T10:12:47.745Z,1002.45
2022-07-25T10:13:47.783Z,1002.44
2022-07-25T10:14:47.817Z,1002.46
2022-07-25T10:15:47.860Z,1002.44
2022-07-25T10:16:47.965Z,1002.36
2022-07-25T10:17:47.929Z,1002.33
2022-07-25T10:18:47.983Z,1002.26
2022-07-25T10:19:52.857Z,1002.25
2022-07-25T10:20:48.047Z,1002.26
2022-07-25T10:21:48.074Z,1002.25
2022-07-25T10:22:57.083Z,1002.27
2022-07-25T10:23:48.147Z,1002.23
2022-07-25T10:24:48.186Z,1002.16
2022-07-25T10:25:49.322Z,1002.15
2022-07-25T10:26:48.260Z,1002.10
2022-07-25T10:27:48.320Z,1002.10
2022-07-25T10:28:48.328Z,1002.05
2022-07-25T10:29:48.370Z,1002.10
2022-07-25T10:30:48.432Z,1002.06
2022-07-25T10:31:51.401Z,1002.09
2022-07-25T10:32:48.485Z,1002.08
2022-07-25T10:33:48.519Z,1002.16
2022-07-25T10:34:48.556Z,1002.18
2022-07-25T10:35:48.596Z,1002.19
2022-07-25T10:36:48.627Z,1002.20
2022-07-25T10:37:49.247Z,1002.11
2022-07-25T10:38:48.719Z,1002.12
2022-07-25T10:39:48.742Z,1002.15
2022-07-25T10:40:48.778Z,1002.16
2022-07-25T10:41:48.813Z,1002.17
2022-07-25T10:42:48.853Z,1002.14
2022-07-25T10:43:49.030Z,1002.15
2022-07-25T10:44:48.923Z,1002.12
2022-07-25T10:45:48.987Z,1002.15
2022-07-25T10:46:49.000Z,1002.14
2022-07-25T10:47:49.047Z,1002.11
2022-07-25T10:48:49.119Z,1002.10
2022-07-25T10:50:56.907Z,1002.15
2022-07-25T10:51:49.178Z,1002.14
2022-07-25T10:52:49.223Z,1002.13
2022-07-25T10:53:49.254Z,1002.15
2022-07-25T10:54:49.291Z,1002.16
2022-07-25T10:56:04.852Z,1002.17
2022-07-25T10:56:49.362Z,1002.15
2022-07-25T10:58:15.195Z,1002.13
2022-07-25T10:58:49.435Z,1002.17
2022-07-25T10:59:49.470Z,1002.15
2022-07-25T11:00:49.515Z,1002.20
2022-07-25T11:01:49.607Z,1002.14
2022-07-25T11:02:49.626Z,1002.14
2022-07-25T11:03:49.622Z,1002.14
2022-07-25T11:04:49.656Z,1002.15
2022-07-25T11:05:49.692Z,1002.19
2022-07-25T11:06:49.728Z,1002.20
2022-07-25T11:08:11.218Z,1002.18
2022-07-25T11:08:49.802Z,1002.21
2022-07-25T11:09:49.852Z,1002.23
2022-07-25T11:10:49.879Z,1002.20
2022-07-25T11:11:49.917Z,1002.22
2022-07-25T11:12:49.955Z,1002.21
2022-07-25T11:13:49.990Z,1002.16
2022-07-25T11:14:50.027Z,1002.09
2022-07-25T11:15:50.073Z,1002.15
2022-07-25T11:16:50.161Z,1002.17
2022-07-25T11:17:50.140Z,1002.16
2022-07-25T11:18:50.176Z,1002.18
2022-07-25T11:19:50.214Z,1002.24
2022-07-25T11:20:50.252Z,1002.17
2022-07-25T11:21:50.290Z,1002.15
2022-07-25T11:22:50.331Z,1002.17
2022-07-25T11:23:50.366Z,1002.13
2022-07-25T11:24:50.396Z,1002.14
2022-07-25T11:25:50.450Z,1002.13
2022-07-25T11:26:50.474Z,1002.15
2022-07-25T11:27:50.518Z,1002.12
2022-07-25T11:28:50.581Z,1002.15
2022-07-25T11:29:50.589Z,1002.15
2022-07-25T11:30:50.620Z,1002.10
2022-07-25T11:31:50.751Z,1002.13
2022-07-25T11:32:51.097Z,1002.06
2022-07-25T11:33:50.734Z,1002.06
2022-07-25T11:34:50.775Z,1002.12
2022-07-25T11:35:50.816Z,1002.11
2022-07-25T11:36:50.845Z,1002.12
2022-07-25T11:37:50.883Z,1002.14
2022-07-25T11:38:50.920Z,1002.14
2022-07-25T11:39:51.483Z,1002.11
2022-07-25T11:40:50.993Z,1002.10
2022-07-25T11:41:51.030Z,1002.10
2022-07-25T11:42:51.069Z,1002.10
2022-07-25T11:43:51.129Z,1002.13
2022-07-25T11:44:51.141Z,1002.16
2022-07-25T11:45:51.203Z,1002.14
2022-07-25T11:46:51.215Z,1002.12
2022-07-25T11:47:51.250Z,1002.18
2022-07-25T11:48:51.352Z,1002.15
2022-07-25T11:49:51.322Z,1002.14
2022-07-25T11:50:51.379Z,1002.11
2022-07-25T11:51:51.398Z,1002.15
2022-07-25T11:52:51.431Z,1002.08
2022-07-25T11:53:51.473Z,1002.14
2022-07-25T11:54:51.507Z,1002.09
2022-07-25T11:55:51.565Z,1002.12
2022-07-25T11:56:51.600Z,1002.08
2022-07-25T11:57:51.613Z,1002.17
2022-07-25T11:58:51.651Z,1002.12
2022-07-25T11:59:51.690Z,1002.17
2022-07-25T12:00:51.726Z,1002.14
2022-07-25T12:01:51.783Z,1002.10
2022-07-25T12:02:51.945Z,1002.13
2022-07-25T12:03:51.877Z,1002.19
2022-07-25T12:04:51.913Z,1002.10
2022-07-25T12:05:51.909Z,1002.17
2022-07-25T12:06:51.946Z,1002.07
2022-07-25T12:07:51.984Z,1002.09
2022-07-25T12:08:52.020Z,1002.08
2022-07-25T12:09:52.056Z,1002.08
2022-07-25T12:10:52.093Z,1002.08
2022-07-25T12:11:52.130Z,1002.05
2022-07-25T12:12:52.170Z,1002.08
2022-07-25T12:13:52.209Z,1002.11
2022-07-25T12:14:52.242Z,1002.03
2022-07-25T12:15:52.281Z,1002.09
2022-07-25T12:16:52.401Z,1002.14
2022-07-25T12:17:52.350Z,1002.11
2022-07-25T12:18:52.390Z,1002.16
2022-07-25T12:19:52.426Z,1002.12
2022-07-25T12:20:52.463Z,1002.13
2022-07-25T12:21:52.526Z,1002.14
2022-07-25T12:22:52.539Z,1002.14
2022-07-25T12:23:52.578Z,1002.17
2022-07-25T12:24:52.608Z,1002.10
2022-07-25T12:25:52.649Z,1002.11
2022-07-25T12:26:52.692Z,1002.09
2022-07-25T12:27:52.720Z,1002.11
2022-07-25T12:28:52.759Z,1002.07
2022-07-25T12:29:52.792Z,1002.11
2022-07-25T12:30:56.458Z,1002.07
2022-07-25T12:31:52.867Z,1002.05
2022-07-25T12:32:52.904Z,1002.04
2022-07-25T12:33:52.942Z,1002.04
2022-07-25T12:34:52.980Z,1002.02
2022-07-25T12:35:53.038Z,1001.99
2022-07-25T12:36:53.050Z,1002.00
2022-07-25T12:37:53.087Z,1002.00
2022-07-25T12:38:53.124Z,1002.03
2022-07-25T12:39:53.165Z,1002.00
2022-07-25T12:40:53.199Z,1001.96
2022-07-25T12:41:53.241Z,1001.98
2022-07-25T12:42:53.271Z,1002.06